This is the latest recevied weather packets stored in our database for station/object F1AGU-13. If no packets are shown the sender has not sent any weather packets the latest 10 day(s).
| Time | Temp. | Humidity | Pressure | Rain* | Wind** | Luminosity | Snow |
|---|---|---|---|---|---|---|---|
| 1777793717 | 13.89° C | 57% | 1016.9 hPa | 0 mm | - | - | - |
| 1777793117 | 13.33° C | 64% | 1017.1 hPa | 0 mm | - | - | - |
| 1777792517 | 12.22° C | 53% | 1016.7 hPa | 0 mm | - | - | - |
| 1777791917 | 11.67° C | 58% | 1016.6 hPa | 0 mm | - | - | - |
| 1777791317 | 11.11° C | 73% | 1016.9 hPa | 0 mm | - | - | - |
| 1777790717 | 11.11° C | 73% | 1016.9 hPa | 0 mm | - | - | - |
| 1777790117 | 10.56° C | 74% | 1017 hPa | 0 mm | - | - | - |
| 1777789517 | 10.56° C | 73% | 1017.1 hPa | 0 mm | - | - | - |
| 1777788917 | 10.56° C | 73% | 1017 hPa | 0 mm | - | - | - |
| 1777788317 | 10° C | 76% | 1017.1 hPa | 0 mm | - | - | - |
| 1777787717 | 10° C | 73% | 1017.1 hPa | 0 mm | - | - | - |
| 1777787117 | 10° C | 75% | 1017.3 hPa | 0 mm | - | - | - |
| 1777786517 | 10° C | 76% | 1017.5 hPa | 0 mm | - | - | - |
| 1777785917 | 10° C | 71% | 1017.4 hPa | 0 mm | - | - | - |
| 1777785317 | 10° C | 70% | 1017.4 hPa | 0 mm | - | - | - |
| 1777784717 | 10.56° C | 70% | 1017.7 hPa | 0 mm | - | - | - |
| 1777784117 | 10.56° C | 68% | 1017.9 hPa | 0 mm | - | - | - |
| 1777783517 | 10.56° C | 66% | 1017.8 hPa | 0 mm | - | - | - |
| 1777782917 | 10.56° C | 63% | 1017.7 hPa | 0 mm | - | - | - |
| 1777782317 | 10.56° C | 65% | 1017.7 hPa | 0 mm | - | - | - |
| 1777781717 | 10.56° C | 67% | 1017.6 hPa | 0 mm | - | - | - |
| 1777781117 | 10.56° C | 67% | 1018 hPa | 0 mm | - | - | - |
| 1777780517 | 10.56° C | 68% | 1018.2 hPa | 0 mm | - | - | - |
| 1777779917 | 10.56° C | 65% | 1018.1 hPa | 0 mm | - | - | - |
| 1777779317 | 10.56° C | 65% | 1018.1 hPa | 0 mm | - | - | - |
* Rain latest hour (hover to see other rain measurements)
** Current wind speed in m/s (hover to see current wind gust speed)